Chenega Bay, Alaska
Current Conditions -  °F | °C
As of 4:53 PM on Friday 24 Oct 2014 (Local Time) from PACV Reporting Station
Overcast Overcast  
Wind Chill: 44°   Ceiling: 4600
Heat Index: 44°   Visibility: 10mi
Dew Point: 40°   Wind: 0mph
Humidity: 85%   Direction: NA
Pressure: 29.78"   Gusts: NA
Location:  60.5501°N, 145.751°W
Report Text: PACV 250053Z 00000KT 10SM FEW032 BKN046 OVC055 07/04 A2978 RMK AO2 RAE19 SLP085 P0000 T00670044
Loading
Personal Weather Stations






























Interactive Weather Map
Tropical Storm Tracking
New forecast layout! Learn more

10-Day Weather Forecast

Advertisements
Track Severe Weather on mobile